createdAt,value
2019-06-15T00:00:22.021Z,21.60
2019-06-15T00:02:50.445Z,21.60
2019-06-15T00:05:18.883Z,21.60
2019-06-15T00:07:47.321Z,21.60
2019-06-15T00:10:15.942Z,21.50
2019-06-15T00:12:44.377Z,21.50
2019-06-15T00:15:12.983Z,21.50
2019-06-15T00:17:41.423Z,21.50
2019-06-15T00:20:10.152Z,21.50
2019-06-15T00:22:38.597Z,21.40
2019-06-15T00:25:08.854Z,21.40
2019-06-15T00:27:37.265Z,21.40
2019-06-15T00:30:08.319Z,21.40
2019-06-15T00:32:36.729Z,21.40
2019-06-15T00:35:09.305Z,21.30
2019-06-15T00:37:37.768Z,21.30
2019-06-15T00:40:07.930Z,21.30
2019-06-15T00:42:36.411Z,21.30
2019-06-15T00:45:06.478Z,21.20
2019-06-15T00:47:34.964Z,21.20
2019-06-15T00:50:03.816Z,21.20
2019-06-15T00:52:32.313Z,21.10
2019-06-15T00:55:00.754Z,21.10
2019-06-15T00:57:29.184Z,21.00
2019-06-15T00:59:57.604Z,21.00
2019-06-15T01:02:26.041Z,21.00
2019-06-15T01:04:54.478Z,20.90
2019-06-15T01:07:22.918Z,20.90
2019-06-15T01:09:51.347Z,20.90
2019-06-15T01:12:19.774Z,20.90
2019-06-15T01:14:48.202Z,20.80
2019-06-15T01:17:16.788Z,20.80
2019-06-15T01:19:45.208Z,20.80
2019-06-15T01:22:13.653Z,20.70
2019-06-15T01:24:42.082Z,20.60
2019-06-15T01:27:10.625Z,20.60
2019-06-15T01:29:40.716Z,20.60
2019-06-15T01:32:09.152Z,20.60
2019-06-15T01:34:37.581Z,20.60
2019-06-15T01:37:06.030Z,20.50
2019-06-15T01:39:34.486Z,20.50
2019-06-15T01:42:03.082Z,20.50
2019-06-15T01:44:31.498Z,20.50
2019-06-15T01:46:59.926Z,20.50
2019-06-15T01:49:28.349Z,20.50
2019-06-15T01:51:56.861Z,20.40
2019-06-15T01:54:25.279Z,20.40
2019-06-15T01:56:53.726Z,20.40
2019-06-15T01:59:22.154Z,20.30
2019-06-15T02:01:50.576Z,20.30
2019-06-15T02:04:19.008Z,20.30
2019-06-15T02:06:47.550Z,20.20
2019-06-15T02:09:15.983Z,20.20
2019-06-15T02:11:44.403Z,20.20
2019-06-15T02:14:12.832Z,20.20
2019-06-15T02:16:41.279Z,20.10
2019-06-15T02:19:09.859Z,20.10
2019-06-15T02:21:38.296Z,20.10
2019-06-15T02:24:06.812Z,20.10
2019-06-15T02:26:35.297Z,20.00
2019-06-15T02:29:03.811Z,20.00
2019-06-15T02:31:32.221Z,20.00
2019-06-15T02:34:00.663Z,19.90
2019-06-15T02:36:29.078Z,19.90
2019-06-15T02:38:57.517Z,19.90
2019-06-15T02:41:26.017Z,19.90
2019-06-15T02:43:54.532Z,19.80
2019-06-15T02:46:26.277Z,19.90
2019-06-15T02:48:53.421Z,19.80
2019-06-15T02:51:22.361Z,19.80
2019-06-15T02:53:51.041Z,19.80
2019-06-15T02:56:19.563Z,19.80
2019-06-15T02:58:47.977Z,19.80
2019-06-15T03:01:16.429Z,19.80
2019-06-15T03:03:45.023Z,19.80
2019-06-15T03:06:13.608Z,19.80
2019-06-15T03:08:42.365Z,19.70
2019-06-15T03:11:10.804Z,19.70
2019-06-15T03:13:39.231Z,19.70
2019-06-15T03:16:07.657Z,19.60
2019-06-15T03:18:36.072Z,19.60
2019-06-15T03:21:05.185Z,19.60
2019-06-15T03:23:33.677Z,19.60
2019-06-15T03:26:05.669Z,19.60
2019-06-15T03:28:32.303Z,19.50
2019-06-15T03:31:00.741Z,19.50
2019-06-15T03:33:29.217Z,19.50
2019-06-15T03:35:57.717Z,19.50
2019-06-15T03:38:26.156Z,19.50
2019-06-15T03:40:54.651Z,19.50
2019-06-15T03:43:23.058Z,19.50
2019-06-15T03:45:51.507Z,19.50
2019-06-15T03:48:20.006Z,19.50
2019-06-15T03:50:48.521Z,19.50
2019-06-15T03:53:16.959Z,19.50
2019-06-15T03:55:45.454Z,19.40
2019-06-15T03:58:13.885Z,19.50
2019-06-15T04:00:45.402Z,19.40
2019-06-15T04:03:14.211Z,19.40
2019-06-15T04:05:43.063Z,19.40
2019-06-15T04:08:11.837Z,19.40
2019-06-15T04:10:40.494Z,19.40
2019-06-15T04:13:09.006Z,19.40
2019-06-15T04:15:37.992Z,19.40
2019-06-15T04:18:06.577Z,19.50
2019-06-15T04:20:34.991Z,19.50
2019-06-15T04:23:03.698Z,19.50
2019-06-15T04:25:32.101Z,19.50
2019-06-15T04:28:00.611Z,19.50
2019-06-15T04:30:29.023Z,19.50
2019-06-15T04:32:57.452Z,19.50
2019-06-15T04:35:25.893Z,19.60
2019-06-15T04:37:54.329Z,19.60
2019-06-15T04:40:23.127Z,19.60
2019-06-15T04:42:51.600Z,19.60
2019-06-15T04:45:20.154Z,19.70
2019-06-15T04:47:48.556Z,19.70
2019-06-15T04:50:17.229Z,19.70
2019-06-15T04:52:45.677Z,19.70
2019-06-15T04:55:14.360Z,19.70
2019-06-15T04:57:42.776Z,19.70
2019-06-15T05:00:11.666Z,19.70
2019-06-15T05:02:40.589Z,19.70
2019-06-15T05:05:09.153Z,19.80
2019-06-15T05:07:37.569Z,19.80
2019-06-15T05:10:06.919Z,19.80
2019-06-15T05:12:35.603Z,19.80
2019-06-15T05:15:05.583Z,19.80
2019-06-15T05:17:34.148Z,19.80
2019-06-15T05:20:02.773Z,19.90
2019-06-15T05:22:31.204Z,19.90
2019-06-15T05:24:59.660Z,19.90
2019-06-15T05:27:28.066Z,19.90
2019-06-15T05:29:56.731Z,19.90
2019-06-15T05:32:25.393Z,19.90
2019-06-15T05:34:53.887Z,19.90
2019-06-15T05:37:22.296Z,20.00
2019-06-15T05:39:50.740Z,20.00
2019-06-15T05:42:19.228Z,20.00
2019-06-15T05:44:47.665Z,20.00
2019-06-15T05:47:16.073Z,20.00
2019-06-15T05:49:44.512Z,20.10
2019-06-15T05:52:12.928Z,20.10
2019-06-15T05:54:41.354Z,20.10
2019-06-15T05:57:21.126Z,20.20
2019-06-15T05:59:40.047Z,20.20
2019-06-15T06:02:08.984Z,20.20
2019-06-15T06:04:37.414Z,20.20
2019-06-15T06:07:05.856Z,20.30
2019-06-15T06:09:34.291Z,20.30
2019-06-15T06:12:02.730Z,20.40
2019-06-15T06:14:31.162Z,20.40
2019-06-15T06:16:59.629Z,20.50
2019-06-15T06:19:28.112Z,20.50
2019-06-15T06:21:58.352Z,20.60
2019-06-15T06:24:26.853Z,20.60
2019-06-15T06:26:55.281Z,20.60
2019-06-15T06:29:23.790Z,20.70
2019-06-15T06:31:52.298Z,20.70
2019-06-15T06:34:20.845Z,20.80
2019-06-15T06:36:49.327Z,20.80
2019-06-15T06:39:17.812Z,20.90
2019-06-15T06:41:46.262Z,21.00
2019-06-15T06:44:14.684Z,21.00
2019-06-15T06:46:43.099Z,21.10
2019-06-15T06:49:11.675Z,21.10
2019-06-15T06:51:40.155Z,21.20
2019-06-15T06:54:08.610Z,21.10
2019-06-15T06:56:37.231Z,21.10
2019-06-15T06:59:05.732Z,21.10
2019-06-15T07:01:34.145Z,21.10
2019-06-15T07:04:02.596Z,21.20
2019-06-15T07:06:31.092Z,21.20
2019-06-15T07:08:59.531Z,21.20
2019-06-15T07:11:27.943Z,21.20
2019-06-15T07:13:56.421Z,21.30
2019-06-15T07:16:24.945Z,21.40
2019-06-15T07:18:53.388Z,21.40
2019-06-15T07:21:21.935Z,21.50
2019-06-15T07:23:50.402Z,21.60
2019-06-15T07:26:18.876Z,21.70
2019-06-15T07:28:47.620Z,21.70
2019-06-15T07:31:16.025Z,21.80
2019-06-15T07:33:44.460Z,21.80
2019-06-15T07:36:12.906Z,21.80
2019-06-15T07:38:41.352Z,21.80
2019-06-15T07:41:09.785Z,21.90
2019-06-15T07:43:38.444Z,21.90
2019-06-15T07:46:06.870Z,22.00
2019-06-15T07:48:35.289Z,22.10
2019-06-15T07:51:03.818Z,22.10
2019-06-15T07:53:32.360Z,22.20
2019-06-15T07:56:00.969Z,22.10
2019-06-15T07:58:29.400Z,22.20
2019-06-15T08:00:57.871Z,22.20
2019-06-15T08:03:26.280Z,22.30
2019-06-15T08:05:54.719Z,22.30
2019-06-15T08:08:23.357Z,22.40
2019-06-15T08:10:51.822Z,22.40
2019-06-15T08:13:21.171Z,22.50
2019-06-15T08:15:49.613Z,22.40
2019-06-15T08:18:18.054Z,22.40
2019-06-15T08:20:46.518Z,22.40
2019-06-15T08:23:14.978Z,22.40
2019-06-15T08:25:43.455Z,22.40
2019-06-15T08:28:11.938Z,22.40
2019-06-15T08:30:44.190Z,22.40
2019-06-15T08:33:12.969Z,22.40
2019-06-15T08:35:41.552Z,22.40
2019-06-15T08:38:09.970Z,22.40
2019-06-15T08:40:38.480Z,22.40
2019-06-15T08:43:06.960Z,22.40
2019-06-15T08:45:35.425Z,22.40
2019-06-15T08:48:04.031Z,22.40
2019-06-15T08:50:32.679Z,22.40
2019-06-15T08:53:01.130Z,22.40
2019-06-15T08:55:29.570Z,22.40
2019-06-15T08:57:58.081Z,22.40
2019-06-15T09:00:27.474Z,22.40
2019-06-15T09:02:55.995Z,22.40
2019-06-15T09:05:24.422Z,22.50
2019-06-15T09:07:52.858Z,22.50
2019-06-15T09:10:21.471Z,22.50
2019-06-15T09:12:50.058Z,22.50
2019-06-15T09:15:37.846Z,22.50
2019-06-15T09:18:06.372Z,22.50
2019-06-15T09:20:34.929Z,22.60
2019-06-15T09:23:03.389Z,22.60
2019-06-15T09:25:31.997Z,22.60
2019-06-15T09:28:00.522Z,22.60
2019-06-15T09:30:28.944Z,22.70
2019-06-15T09:32:57.395Z,22.80
2019-06-15T09:35:25.792Z,22.80
2019-06-15T09:37:54.513Z,22.90
2019-06-15T09:40:23.029Z,23.00
2019-06-15T09:42:51.518Z,23.00
2019-06-15T09:45:20.273Z,23.10
2019-06-15T09:47:48.730Z,23.20
2019-06-15T09:50:17.302Z,23.20
2019-06-15T09:52:45.825Z,23.20
2019-06-15T09:55:14.362Z,23.30
2019-06-15T09:57:42.907Z,23.30
2019-06-15T10:00:12.025Z,23.30
2019-06-15T10:02:40.567Z,23.30
2019-06-15T10:05:09.946Z,23.30
2019-06-15T10:07:38.417Z,23.30
2019-06-15T10:10:08.208Z,23.30
2019-06-15T10:12:36.726Z,23.30
2019-06-15T10:15:07.260Z,23.50
2019-06-15T10:17:35.920Z,23.60
2019-06-15T10:20:06.293Z,23.70
2019-06-15T10:22:34.758Z,23.70
2019-06-15T10:25:05.115Z,23.90
2019-06-15T10:27:33.591Z,23.90
2019-06-15T10:30:02.119Z,23.90
2019-06-15T10:32:31.057Z,23.80
2019-06-15T10:34:59.549Z,23.80
2019-06-15T10:37:27.979Z,23.80
2019-06-15T10:39:56.452Z,23.90
2019-06-15T10:42:24.863Z,23.90
2019-06-15T10:44:53.293Z,23.90
2019-06-15T10:47:21.716Z,23.80
2019-06-15T10:49:50.154Z,23.80
2019-06-15T10:52:18.643Z,23.80
2019-06-15T10:54:47.091Z,23.80
2019-06-15T10:57:15.541Z,23.80
2019-06-15T10:59:56.449Z,23.80
2019-06-15T11:02:14.133Z,23.80
2019-06-15T11:04:42.582Z,23.80
2019-06-15T11:07:11.022Z,23.90
2019-06-15T11:09:39.422Z,23.90
2019-06-15T11:12:07.957Z,24.00
2019-06-15T11:14:36.353Z,24.00
2019-06-15T11:17:04.906Z,24.10
2019-06-15T11:19:33.387Z,24.20
2019-06-15T11:22:01.871Z,24.30
2019-06-15T11:24:30.433Z,24.30
2019-06-15T11:26:58.868Z,24.30
2019-06-15T11:29:27.303Z,24.30
2019-06-15T11:31:55.749Z,24.30
2019-06-15T11:34:24.173Z,24.20
2019-06-15T11:36:52.611Z,24.20
2019-06-15T11:39:21.027Z,24.30
2019-06-15T11:41:49.481Z,24.40
2019-06-15T11:44:18.009Z,24.50
2019-06-15T11:46:46.533Z,24.60
2019-06-15T11:49:14.973Z,24.80
2019-06-15T11:51:43.417Z,24.90
2019-06-15T11:54:11.848Z,24.90
2019-06-15T11:56:40.300Z,24.90
2019-06-15T11:59:08.714Z,24.90
2019-06-15T12:01:37.210Z,24.80
2019-06-15T12:04:05.805Z,24.80
2019-06-15T12:06:34.785Z,24.80
2019-06-15T12:09:04.730Z,24.80
2019-06-15T12:11:33.155Z,25.00
2019-06-15T12:14:04.768Z,25.20
2019-06-15T12:16:33.213Z,25.40
2019-06-15T12:19:01.668Z,25.50
2019-06-15T12:21:30.113Z,25.50
2019-06-15T12:23:58.549Z,25.50
2019-06-15T12:26:26.997Z,25.70
2019-06-15T12:28:55.445Z,25.90
2019-06-15T12:31:23.856Z,25.90
2019-06-15T12:33:52.325Z,25.80
2019-06-15T12:36:20.872Z,25.70
2019-06-15T12:38:49.460Z,25.60
2019-06-15T12:41:17.888Z,25.60
2019-06-15T12:43:46.320Z,25.70
2019-06-15T12:46:14.767Z,25.80
2019-06-15T12:48:43.365Z,26.10
2019-06-15T12:51:11.833Z,26.30
2019-06-15T12:53:40.377Z,26.50
2019-06-15T12:56:08.884Z,26.60
2019-06-15T12:58:37.294Z,26.70
2019-06-15T13:01:05.744Z,26.80
2019-06-15T13:03:34.174Z,26.90
2019-06-15T13:06:02.627Z,27.10
2019-06-15T13:08:31.061Z,27.20
2019-06-15T13:10:59.525Z,27.30
2019-06-15T13:13:27.957Z,27.40
2019-06-15T13:15:56.585Z,27.40
2019-06-15T13:18:25.093Z,27.50
2019-06-15T13:20:55.064Z,27.40
2019-06-15T13:23:23.521Z,27.40
2019-06-15T13:25:51.981Z,27.50
2019-06-15T13:28:20.407Z,27.60
2019-06-15T13:30:48.858Z,27.70
2019-06-15T13:33:17.371Z,27.70
2019-06-15T13:35:45.839Z,27.80
2019-06-15T13:38:14.284Z,27.80
2019-06-15T13:40:42.717Z,27.90
2019-06-15T13:43:11.209Z,27.90
2019-06-15T13:45:39.721Z,28.00
2019-06-15T13:48:11.446Z,28.10
2019-06-15T13:50:38.350Z,28.10
2019-06-15T13:53:06.785Z,28.00
2019-06-15T13:55:35.317Z,28.10
2019-06-15T13:58:03.872Z,28.20
2019-06-15T14:00:32.384Z,28.20
2019-06-15T14:03:00.921Z,28.10
2019-06-15T14:05:29.348Z,28.10
2019-06-15T14:07:57.808Z,28.00
2019-06-15T14:10:26.325Z,27.90
2019-06-15T14:12:54.834Z,27.90
2019-06-15T14:15:23.255Z,27.90
2019-06-15T14:17:51.970Z,27.90
2019-06-15T14:20:20.574Z,27.90
2019-06-15T14:22:49.075Z,28.00
2019-06-15T14:25:17.606Z,28.10
2019-06-15T14:27:46.062Z,28.10
2019-06-15T14:30:15.007Z,28.10
2019-06-15T14:32:43.625Z,28.20
2019-06-15T14:35:12.489Z,28.20
2019-06-15T14:37:40.918Z,28.20
2019-06-15T14:40:09.885Z,28.30
2019-06-15T14:42:38.318Z,28.30
2019-06-15T14:45:07.485Z,28.30
2019-06-15T14:47:36.050Z,28.30
2019-06-15T14:50:06.284Z,28.30
2019-06-15T14:52:34.729Z,28.40
2019-06-15T14:55:03.313Z,28.40
2019-06-15T14:57:31.760Z,28.20
2019-06-15T15:00:04.985Z,28.00
2019-06-15T15:02:30.414Z,27.90
2019-06-15T15:04:58.866Z,27.80
2019-06-15T15:07:27.378Z,27.70
2019-06-15T15:09:56.692Z,27.60
2019-06-15T15:12:26.543Z,27.50
2019-06-15T15:14:56.493Z,27.60
2019-06-15T15:17:26.829Z,27.60
2019-06-15T15:19:57.426Z,27.60
2019-06-15T15:22:27.304Z,27.60
2019-06-15T15:24:56.480Z,27.60
2019-06-15T15:27:26.963Z,27.60
2019-06-15T15:29:57.065Z,27.70
2019-06-15T15:32:31.120Z,27.80
2019-06-15T15:34:56.054Z,27.80
2019-06-15T15:37:26.898Z,27.80
2019-06-15T15:39:56.522Z,27.90
2019-06-15T15:42:26.636Z,27.90
2019-06-15T15:44:58.705Z,27.80
2019-06-15T15:47:27.724Z,27.60
2019-06-15T15:49:57.566Z,27.40
2019-06-15T15:52:27.070Z,27.40
2019-06-15T15:54:56.532Z,27.30
2019-06-15T15:57:26.683Z,27.30
2019-06-15T15:59:56.402Z,27.20
2019-06-15T16:02:35.399Z,27.10
2019-06-15T16:05:16.612Z,27.00
2019-06-15T16:07:46.553Z,27.10
2019-06-15T16:10:16.066Z,27.10
2019-06-15T16:12:46.447Z,26.90
2019-06-15T16:15:15.955Z,26.80
2019-06-15T16:17:46.458Z,26.80
2019-06-15T16:20:17.625Z,26.90
2019-06-15T16:22:49.753Z,27.00
2019-06-15T16:25:18.297Z,27.00
2019-06-15T16:27:46.769Z,26.90
2019-06-15T16:30:18.299Z,26.90
2019-06-15T16:33:00.124Z,26.90
2019-06-15T16:35:17.161Z,26.80
2019-06-15T16:37:45.634Z,26.70
2019-06-15T16:40:15.808Z,26.60
2019-06-15T16:42:46.624Z,26.60
2019-06-15T16:45:16.148Z,26.60
2019-06-15T16:47:46.737Z,26.50
2019-06-15T16:50:16.142Z,26.50
2019-06-15T16:52:46.785Z,26.50
2019-06-15T16:55:16.814Z,26.60
2019-06-15T16:57:46.641Z,26.70
2019-06-15T17:00:18.275Z,26.70
2019-06-15T17:02:47.508Z,26.60
2019-06-15T17:05:16.890Z,26.60
2019-06-15T17:07:46.117Z,26.40
2019-06-15T17:10:16.854Z,26.40
2019-06-15T17:12:47.597Z,26.30
2019-06-15T17:15:17.008Z,26.20
2019-06-15T17:17:46.069Z,26.20
2019-06-15T17:20:16.422Z,26.10
2019-06-15T17:22:47.279Z,26.20
2019-06-15T17:25:16.580Z,26.20
2019-06-15T17:27:46.958Z,26.20
2019-06-15T17:30:17.228Z,26.20
2019-06-15T17:32:45.826Z,26.20
2019-06-15T17:35:16.761Z,26.30
2019-06-15T17:37:46.900Z,26.30
2019-06-15T17:40:16.267Z,26.30
2019-06-15T17:42:45.014Z,26.30
2019-06-15T17:45:16.000Z,26.20
2019-06-15T17:47:46.590Z,26.20
2019-06-15T17:50:16.932Z,26.20
2019-06-15T17:52:46.795Z,26.20
2019-06-15T17:55:17.713Z,26.10
2019-06-15T17:57:46.530Z,26.10
2019-06-15T18:00:16.551Z,26.00
2019-06-15T18:02:45.215Z,26.00
2019-06-15T18:05:13.705Z,25.90
2019-06-15T18:07:42.167Z,25.90
2019-06-15T18:10:10.784Z,25.80
2019-06-15T18:12:39.230Z,25.80
2019-06-15T18:15:09.174Z,25.80
2019-06-15T18:17:37.625Z,25.70
2019-06-15T18:20:06.814Z,25.70
2019-06-15T18:22:36.241Z,25.60
2019-06-15T18:25:06.422Z,25.60
2019-06-15T18:27:37.253Z,25.60
2019-06-15T18:30:06.907Z,25.50
2019-06-15T18:32:37.842Z,25.50
2019-06-15T18:35:06.534Z,25.50
2019-06-15T18:37:37.087Z,25.50
2019-06-15T18:40:07.287Z,25.40
2019-06-15T18:42:37.001Z,25.40
2019-06-15T18:45:07.377Z,25.30
2019-06-15T18:47:36.508Z,25.30
2019-06-15T18:50:09.210Z,25.20
2019-06-15T18:52:38.007Z,25.20
2019-06-15T18:55:08.461Z,25.10
2019-06-15T18:57:37.371Z,25.10
2019-06-15T19:00:08.610Z,25.10
2019-06-15T19:02:37.029Z,25.00
2019-06-15T19:05:07.312Z,25.00
2019-06-15T19:07:37.710Z,25.00
2019-06-15T19:10:07.304Z,24.90
2019-06-15T19:12:35.900Z,24.90
2019-06-15T19:15:07.321Z,24.80
2019-06-15T19:17:37.075Z,24.80
2019-06-15T19:20:08.470Z,24.80
2019-06-15T19:22:36.922Z,24.70
2019-06-15T19:25:06.627Z,24.70
2019-06-15T19:27:36.615Z,24.70
2019-06-15T19:30:07.043Z,24.60
2019-06-15T19:32:36.901Z,24.60
2019-06-15T19:35:07.986Z,24.60
2019-06-15T19:37:37.085Z,24.50
2019-06-15T19:40:08.916Z,24.50
2019-06-15T19:42:37.801Z,24.50
2019-06-15T19:45:10.188Z,24.50
2019-06-15T19:47:37.986Z,24.40
2019-06-15T19:50:09.773Z,24.40
2019-06-15T19:52:37.285Z,24.30
2019-06-15T19:55:08.925Z,24.30
2019-06-15T19:57:37.517Z,24.30
2019-06-15T20:00:08.097Z,24.20
2019-06-15T20:02:36.602Z,24.10
2019-06-15T20:05:07.173Z,24.10
2019-06-15T20:07:36.796Z,24.10
2019-06-15T20:10:08.423Z,24.10
2019-06-15T20:12:37.428Z,24.00
2019-06-15T20:15:06.558Z,24.00
2019-06-15T20:17:36.828Z,23.90
2019-06-15T20:20:07.346Z,23.90
2019-06-15T20:22:37.277Z,23.80
2019-06-15T20:25:07.222Z,23.80
2019-06-15T20:27:37.711Z,23.70
2019-06-15T20:30:09.585Z,23.70
2019-06-15T20:32:38.289Z,23.70
2019-06-15T20:35:17.005Z,23.60
2019-06-15T20:37:38.318Z,23.60
2019-06-15T20:40:07.646Z,23.60
2019-06-15T20:42:36.760Z,23.50
2019-06-15T20:45:09.876Z,23.50
2019-06-15T20:47:38.409Z,23.50
2019-06-15T20:50:08.211Z,23.50
2019-06-15T20:52:36.946Z,23.50
2019-06-15T20:55:06.745Z,23.50
2019-06-15T20:57:36.047Z,23.50
2019-06-15T21:00:07.730Z,23.50
2019-06-15T21:02:36.508Z,23.50
2019-06-15T21:05:07.304Z,23.40
2019-06-15T21:07:36.224Z,23.50
2019-06-15T21:10:07.533Z,23.40
2019-06-15T21:12:37.570Z,23.40
2019-06-15T21:15:07.419Z,23.40
2019-06-15T21:17:37.132Z,23.40
2019-06-15T21:20:08.442Z,23.40
2019-06-15T21:22:36.988Z,23.40
2019-06-15T21:25:07.100Z,23.40
2019-06-15T21:27:36.813Z,23.30
2019-06-15T21:30:07.545Z,23.30
2019-06-15T21:32:36.940Z,23.30
2019-06-15T21:35:06.685Z,23.30
2019-06-15T21:37:37.018Z,23.30
2019-06-15T21:40:06.988Z,23.30
2019-06-15T21:42:36.176Z,23.30
2019-06-15T21:45:07.635Z,23.30
2019-06-15T21:47:37.221Z,23.20
2019-06-15T21:50:09.153Z,23.20
2019-06-15T21:52:37.668Z,23.20
2019-06-15T21:55:09.317Z,23.20
2019-06-15T21:57:37.881Z,23.20
2019-06-15T22:00:17.413Z,23.10
2019-06-15T22:02:47.150Z,23.10
2019-06-15T22:05:36.858Z,23.10
2019-06-15T22:08:06.450Z,23.00
2019-06-15T22:10:36.037Z,22.90
2019-06-15T22:13:06.543Z,22.80
2019-06-15T22:15:35.534Z,22.80
2019-06-15T22:18:06.681Z,22.70
2019-06-15T22:20:35.978Z,22.60
2019-06-15T22:23:06.739Z,22.50
2019-06-15T22:25:36.060Z,22.30
2019-06-15T22:28:06.783Z,22.10
2019-06-15T22:30:36.652Z,22.00
2019-06-15T22:33:06.820Z,21.80
2019-06-15T22:35:36.382Z,21.60
2019-06-15T22:38:07.117Z,21.40
2019-06-15T22:40:36.318Z,21.40
2019-06-15T22:43:07.008Z,21.30
2019-06-15T22:45:35.240Z,21.30
2019-06-15T22:48:03.766Z,21.30
2019-06-15T22:50:32.327Z,21.30
2019-06-15T22:53:03.900Z,21.30
2019-06-15T22:55:31.079Z,21.30
2019-06-15T22:57:59.496Z,21.30
2019-06-15T23:00:27.967Z,21.20
2019-06-15T23:02:56.624Z,21.20
2019-06-15T23:05:26.322Z,21.10
2019-06-15T23:07:55.996Z,21.10
2019-06-15T23:10:24.693Z,21.10
2019-06-15T23:12:53.162Z,21.10
2019-06-15T23:15:21.881Z,21.10
2019-06-15T23:17:50.401Z,21.10
2019-06-15T23:20:18.887Z,21.20
2019-06-15T23:22:47.407Z,21.20
2019-06-15T23:25:16.786Z,21.10
2019-06-15T23:27:46.975Z,21.10
2019-06-15T23:30:16.231Z,21.20
2019-06-15T23:32:46.870Z,21.20
2019-06-15T23:35:16.816Z,21.10
2019-06-15T23:37:46.534Z,21.10
2019-06-15T23:40:18.902Z,21.00
2019-06-15T23:42:48.784Z,21.00
2019-06-15T23:45:18.736Z,21.00
2019-06-15T23:47:47.171Z,21.00
2019-06-15T23:50:17.089Z,20.90
2019-06-15T23:52:47.297Z,20.90
2019-06-15T23:55:17.652Z,20.90
2019-06-15T23:57:46.454Z,20.90
